Aérodrome :
LOGIN :

S'inscrire | Disclaimer

   EN    FR    IT 

 










Légende :    VFR   VFR Marginal   IFR   IFR Intensif   IFR Très Intensif
Visi : 
Plafond : 
>= 8 km
>= 3000ft
5 à 8 km
1000 à 3000 ft
1500m à 5 km
500 à 1000 ft
800 à 1500m
200 à 500 ft
< 800m
< 200 ft
Symboles :   Orages  Brouillard  Fortes neiges  Fortes précipitations  Vent > 20 kt
SIGMETs :   Divers  Orages  Givrage  Turbulence  Onde Orograph.  Cendres Volcan.






- Altitude de l'aérodrome : 410 ft
- Code IATA : AVB


LIPA - Aviano AB Pordenone

DERNIER METAR :
  • 181355Z 17005KT 9999 FEW040CB SCT050 BKN070 11/04 Q1011

METARs EXPIRÉS :
  • 181255Z 14007KT 9999 FEW040CB SCT060 BKN070 11/02 Q1010 RMK BKN VIS MIN 9999 WIND THR05 /////KT WIND THR23 /////KT A2985 BLU
  • 181155Z 03009KT 9999 FEW040CB BKN080 13/04 Q1010 RMK BKN VIS MIN 9999 WIND THR05 /////KT WIND THR23 /////KT A2983 BLU
  • 181055Z 02017KT 9999 TS FEW030CB BKN070 11/02 Q1009 RMK BKN VIS MIN 9999 WIND THR05 /////KT WIND THR23 /////KT A2981 BLU
  • 181029Z 35009KT 9999 TS FEW040CB BKN070 12/03 Q1009 RMK BKN VIS MIN 9999 WIND THR05 /////KT WIND THR23 /////KT A2981 BLU
  • 180955Z 30008KT 9999 FEW040 BKN070 12/04 Q1009 RMK BKN VIS MIN 9999 WIND THR05 /////KT WIND THR23 /////KT A2982 BLU

TAF TAF LIPA
Valide du 18 à 15h jusqu'au 19 à 00h UTC


181400Z 1815/1824 16008KT 9999 FEW050 BKN080
TEMPO 1815/1818 02018KT 5000 TSRA FEW040CB SCT050 BKN070



MET'MAP, la Météo Aéronautique d'un coup d'oeil ! - Copyright ORBIFLY Décembre 2007 - Disclaimer

ORBIFLY MET'MAP TEAM :

Programmation & Développement : Alexandra Zaïnal
Sur une idée originale de : Baudouin d'Aumeries
Soutien technique & logistique : Manuel Goepfert
Assistance : Marc-Olivier Méhu




SOURCES & CREDITS :

   NOAA